»·PEaware :: N132KT KTVL-O26

N132KT :: KTVL-O26

FLIGHT INFORMATION

Flight Status: Arrived
Operator: Privately registered:
United States
More flights under this callsign
Pilot: Keith S. (1)
Aircraft: BEECH AIRCRAFT BARON
(BE58)
More flights by this aircraft type
Origin: KTVL Lake Tahoe
United States
Destination: O26 Lone Pine
United States
More flights between these airports :: More routes between these airports
Route:
File this flight plan on PilotEdge
Remarks:
Altitude:
(Current/Filed)
11,500ft
Speed:
(Current/Filed)
165kts
Departed: 18-Jun-19 07:16 AM
Arrived: 18-Jun-19 08:15 AM
Distance/Time
Traveled:
166nm/0:59
Distance/Time
To Go:
Arrived

Flight Plot

Page will automatically refresh every two minutes.

Flight plan parsing failed; only flown route is shown


Map Options




Map Legend


Flown Route
Filed Route
Departure Airport
Arrival Airport
Navaid (VOR, NDB)
Fix

Horizontal Profiles

Position Reports

Time Latitude Longitude Heading Altitude Ground
Speed
18-Jun-19 07:08 38.895956 -119.996922 274 6238ft 0kts
18-Jun-19 07:09 38.895957 -119.996922 274 6238ft 0kts
18-Jun-19 07:10 38.895122 -119.996798 114 6238ft 7kts
18-Jun-19 07:11 38.893840 -119.996380 195 6238ft 3kts
18-Jun-19 07:12 38.889142 -119.997736 192 6238ft 24kts
18-Jun-19 07:13 38.882878 -119.999458 169 6238ft 0kts
18-Jun-19 07:14 38.882579 -119.998971 106 6238ft 13kts
18-Jun-19 07:15 38.907994 -119.990649 10 6731ft 126kts
18-Jun-19 07:16 38.926817 -119.961163 125 7924ft 128kts
18-Jun-19 07:17 38.897461 -119.938834 198 8978ft 121kts
18-Jun-19 07:18 38.866469 -119.952589 158 9931ft 129kts
18-Jun-19 07:19 38.834425 -119.926045 145 10594ft 147kts
18-Jun-19 07:20 38.799680 -119.895946 144 11223ft 154kts
18-Jun-19 07:21 38.763024 -119.864932 160 11672ft 169kts
18-Jun-19 07:22 38.721322 -119.829284 140 11502ft 194kts
18-Jun-19 07:23 38.678748 -119.787874 141 11507ft 189kts
18-Jun-19 07:24 38.636894 -119.747746 141 11513ft 186kts
18-Jun-19 07:25 38.595109 -119.707797 141 11520ft 186kts
18-Jun-19 07:26 38.553531 -119.668112 141 11522ft 186kts
18-Jun-19 07:27 38.511843 -119.628384 141 11515ft 186kts
18-Jun-19 07:28 38.470167 -119.588721 141 11507ft 187kts
18-Jun-19 07:29 38.428245 -119.548883 141 11500ft 187kts
18-Jun-19 07:30 38.386497 -119.509269 141 11492ft 187kts
18-Jun-19 07:31 38.344640 -119.469614 141 11483ft 187kts
18-Jun-19 07:32 38.302637 -119.429892 140 11475ft 187kts
18-Jun-19 07:33 38.260723 -119.390296 140 11466ft 187kts
18-Jun-19 07:34 38.218918 -119.350861 140 11469ft 186kts
18-Jun-19 07:35 38.177576 -119.311920 141 11496ft 186kts
18-Jun-19 07:36 38.135896 -119.272717 141 11529ft 185kts
18-Jun-19 07:37 38.094332 -119.233680 141 11567ft 185kts
18-Jun-19 07:38 38.052836 -119.194764 141 11586ft 186kts
18-Jun-19 07:39 38.010778 -119.155377 141 11586ft 186kts
18-Jun-19 07:40 37.968910 -119.116226 141 11586ft 187kts
18-Jun-19 07:41 37.931014 -119.071390 131 11587ft 185kts
18-Jun-19 07:42 37.895377 -119.025568 131 11585ft 185kts
18-Jun-19 07:43 37.859137 -118.979046 131 11583ft 184kts
18-Jun-19 07:44 37.823365 -118.933188 131 11583ft 182kts
18-Jun-19 07:45 37.787810 -118.887675 131 11583ft 180kts
18-Jun-19 07:46 37.752445 -118.842470 131 11583ft 179kts
18-Jun-19 07:47 37.717489 -118.797853 131 11584ft 178kts
18-Jun-19 07:48 37.682582 -118.753364 131 11583ft 177kts
18-Jun-19 07:49 37.647843 -118.709151 131 11584ft 177kts
18-Jun-19 07:50 37.612990 -118.664849 131 11584ft 177kts
18-Jun-19 07:51 37.578162 -118.620629 131 11570ft 178kts
18-Jun-19 07:52 37.543175 -118.576287 131 11532ft 178kts
18-Jun-19 07:53 37.507855 -118.531590 131 11479ft 179kts
18-Jun-19 07:54 37.472581 -118.487012 131 11434ft 179kts
18-Jun-19 07:55 37.437360 -118.442564 131 11404ft 179kts
18-Jun-19 07:56 37.402198 -118.398254 131 11401ft 178kts
18-Jun-19 07:57 37.362555 -118.361587 157 11403ft 181kts
18-Jun-19 07:58 37.315820 -118.341748 160 11402ft 182kts
18-Jun-19 07:59 37.267572 -118.322079 160 11402ft 182kts
18-Jun-19 08:00 37.219257 -118.302491 160 11403ft 182kts
18-Jun-19 08:01 37.170902 -118.282922 160 11403ft 182kts
18-Jun-19 08:02 37.122585 -118.263394 160 11403ft 182kts
18-Jun-19 08:03 37.074106 -118.243834 160 11403ft 183kts
18-Jun-19 08:04 37.023964 -118.223640 160 11102ft 196kts
18-Jun-19 08:05 36.971241 -118.202424 160 10726ft 200kts
18-Jun-19 08:06 36.917719 -118.180913 160 10287ft 205kts
18-Jun-19 08:07 36.865924 -118.160132 160 9470ft 214kts
18-Jun-19 08:08 36.808436 -118.137122 160 8409ft 218kts
18-Jun-19 08:09 36.751009 -118.114122 161 7429ft 215kts
18-Jun-19 08:10 36.694239 -118.091448 161 6470ft 212kts
18-Jun-19 08:11 36.638526 -118.069168 152 5525ft 208kts
18-Jun-19 08:12 36.593001 -118.030537 171 4926ft 188kts
18-Jun-19 08:13 36.570712 -118.044605 343 4112ft 105kts
18-Jun-19 08:14 36.590381 -118.046823 212 3703ft 10kts
18-Jun-19 08:15 36.589750 -118.046820 176 3703ft 0kts

Navigation Log

Ident Type
Flight plan parsing failed, navigation log unavailable